createdAt,value
2019-01-17T00:02:17.453Z,71.52
2019-01-17T00:05:04.127Z,71.49
2019-01-17T00:07:50.825Z,71.47
2019-01-17T00:10:36.045Z,71.47
2019-01-17T00:13:38.091Z,71.44
2019-01-17T00:16:23.500Z,71.39
2019-01-17T00:19:18.969Z,71.50
2019-01-17T00:22:08.137Z,71.61
2019-01-17T00:25:00.594Z,71.58
2019-01-17T00:27:59.134Z,71.79
2019-01-17T00:30:48.542Z,71.80
2019-01-17T00:33:30.006Z,71.90
2019-01-17T00:36:22.138Z,72.11
2019-01-17T00:38:59.988Z,72.02
2019-01-17T00:41:45.126Z,72.02
2019-01-17T00:44:46.549Z,72.00
2019-01-17T00:47:43.260Z,71.84
2019-01-17T00:50:28.504Z,71.70
2019-01-17T00:53:07.079Z,71.77
2019-01-17T00:56:01.752Z,71.83
2019-01-17T00:58:42.530Z,71.88
2019-01-17T01:01:38.452Z,71.88
2019-01-17T01:04:40.170Z,71.96
2019-01-17T01:07:24.696Z,72.01
2019-01-17T01:10:26.409Z,72.36
2019-01-17T01:13:18.346Z,72.21
2019-01-17T01:16:21.195Z,72.07
2019-01-17T01:18:58.778Z,71.96
2019-01-17T01:21:40.310Z,71.82
2019-01-17T01:24:19.355Z,71.80
2019-01-17T01:27:08.207Z,71.77
2019-01-17T01:29:56.978Z,71.86
2019-01-17T01:32:41.122Z,71.91
2019-01-17T01:35:33.810Z,71.84
2019-01-17T01:38:26.237Z,71.87
2019-01-17T01:41:27.979Z,71.76
2019-01-17T01:44:07.835Z,71.80
2019-01-17T01:47:03.282Z,71.97
2019-01-17T01:49:49.971Z,71.98
2019-01-17T01:52:33.165Z,72.01
2019-01-17T01:55:00.246Z,72.07
2019-01-17T01:57:27.265Z,72.13
2019-01-17T01:59:54.316Z,72.26
2019-01-17T02:02:21.357Z,72.06
2019-01-17T02:04:48.405Z,72.11
2019-01-17T02:07:15.484Z,72.13
2019-01-17T02:09:42.543Z,72.31
2019-01-17T02:12:09.591Z,72.24
2019-01-17T02:14:36.743Z,71.97
2019-01-17T02:17:03.777Z,72.12
2019-01-17T02:19:30.907Z,72.13
2019-01-17T02:21:57.953Z,72.12
2019-01-17T02:24:28.535Z,72.05
2019-01-17T02:26:53.933Z,72.23
2019-01-17T02:29:20.986Z,72.04
2019-01-17T02:31:48.028Z,71.93
2019-01-17T02:34:15.083Z,71.86
2019-01-17T02:36:42.126Z,71.86
2019-01-17T02:39:09.169Z,71.87
2019-01-17T02:41:36.227Z,71.70
2019-01-17T02:44:03.260Z,71.56
2019-01-17T02:46:30.314Z,71.57
2019-01-17T02:48:57.355Z,71.38
2019-01-17T02:51:24.392Z,71.19
2019-01-17T02:53:51.419Z,71.15
2019-01-17T02:56:18.478Z,71.12
2019-01-17T02:58:45.512Z,71.04
2019-01-17T03:01:12.542Z,70.92
2019-01-17T03:03:39.585Z,70.83
2019-01-17T03:06:06.642Z,70.80
2019-01-17T03:08:33.676Z,70.79
2019-01-17T03:11:00.726Z,70.54
2019-01-17T03:13:27.788Z,70.56
2019-01-17T03:15:54.826Z,70.73
2019-01-17T03:18:21.848Z,70.83
2019-01-17T03:20:48.890Z,70.71
2019-01-17T03:23:16.234Z,70.87
2019-01-17T03:25:43.288Z,70.79
2019-01-17T03:28:10.366Z,70.72
2019-01-17T03:30:37.422Z,70.73
2019-01-17T03:33:04.464Z,70.64
2019-01-17T03:35:31.510Z,70.61
2019-01-17T03:37:58.537Z,70.83
2019-01-17T03:40:25.567Z,71.10
2019-01-17T03:42:52.627Z,71.17
2019-01-17T03:45:19.673Z,71.50
2019-01-17T03:47:46.716Z,71.81
2019-01-17T03:50:14.328Z,71.81
2019-01-17T03:52:41.427Z,71.51
2019-01-17T03:55:10.039Z,71.51
2019-01-17T03:57:37.073Z,71.88
2019-01-17T04:00:06.432Z,72.16
2019-01-17T04:02:33.471Z,72.45
2019-01-17T04:05:00.731Z,72.49
2019-01-17T04:07:27.773Z,72.48
2019-01-17T04:09:54.815Z,72.48
2019-01-17T04:12:21.851Z,72.71
2019-01-17T04:14:48.907Z,72.71
2019-01-17T04:17:15.933Z,72.58
2019-01-17T04:19:42.956Z,72.54
2019-01-17T04:22:09.981Z,72.68
2019-01-17T04:24:39.873Z,72.78
2019-01-17T04:27:06.909Z,72.83
2019-01-17T04:29:33.961Z,72.64
2019-01-17T04:32:01.005Z,72.64
2019-01-17T04:34:28.037Z,72.85
2019-01-17T04:36:55.088Z,72.85
2019-01-17T04:39:22.123Z,72.85
2019-01-17T04:41:49.143Z,72.89
2019-01-17T04:44:16.168Z,72.99
2019-01-17T04:46:43.218Z,73.00
2019-01-17T04:49:10.244Z,73.01
2019-01-17T04:51:37.278Z,73.16
2019-01-17T04:54:04.341Z,73.14
2019-01-17T04:56:31.384Z,73.21
2019-01-17T04:58:58.432Z,73.31
2019-01-17T05:01:25.467Z,73.40
2019-01-17T05:03:53.008Z,73.53
2019-01-17T05:06:20.016Z,73.55
2019-01-17T05:08:47.041Z,73.59
2019-01-17T05:11:14.070Z,73.57
2019-01-17T05:13:41.102Z,73.48
2019-01-17T05:16:08.164Z,73.58
2019-01-17T05:18:35.197Z,73.75
2019-01-17T05:21:02.220Z,73.63
2019-01-17T05:23:29.239Z,73.37
2019-01-17T05:25:56.276Z,73.36
2019-01-17T05:28:23.288Z,73.23
2019-01-17T05:30:50.332Z,72.86
2019-01-17T05:33:17.353Z,72.66
2019-01-17T05:35:44.715Z,72.55
2019-01-17T05:38:11.767Z,72.70
2019-01-17T05:40:38.822Z,72.87
2019-01-17T05:43:05.834Z,72.94
2019-01-17T05:45:32.874Z,73.16
2019-01-17T05:47:59.914Z,73.28
2019-01-17T05:50:26.968Z,73.37
2019-01-17T05:52:54.007Z,73.46
2019-01-17T05:55:21.062Z,73.50
2019-01-17T05:57:48.167Z,73.47
2019-01-17T06:00:19.417Z,73.45
2019-01-17T06:02:46.473Z,73.51
2019-01-17T06:05:13.712Z,73.75
2019-01-17T06:07:40.758Z,76.86
2019-01-17T06:10:08.900Z,77.55
2019-01-17T06:12:35.949Z,76.22
2019-01-17T06:15:03.913Z,75.54
2019-01-17T06:17:30.965Z,74.50
2019-01-17T06:19:58.005Z,72.27
2019-01-17T06:22:25.054Z,72.35
2019-01-17T06:24:52.065Z,70.10
2019-01-17T06:27:19.114Z,69.92
2019-01-17T06:29:46.137Z,71.28
2019-01-17T06:32:13.187Z,66.74
2019-01-17T06:34:40.238Z,66.08
2019-01-17T06:37:07.253Z,66.49
2019-01-17T06:39:34.289Z,66.99
2019-01-17T06:42:01.311Z,67.19
2019-01-17T06:44:28.349Z,68.04
2019-01-17T06:46:55.384Z,68.41
2019-01-17T06:49:22.421Z,68.68
2019-01-17T06:51:49.449Z,68.85
2019-01-17T06:54:16.496Z,69.43
2019-01-17T06:56:43.522Z,69.90
2019-01-17T06:59:10.566Z,70.33
2019-01-17T07:01:37.585Z,70.61
2019-01-17T07:04:04.609Z,70.76
2019-01-17T07:06:31.672Z,70.29
2019-01-17T07:08:58.705Z,69.54
2019-01-17T07:11:25.850Z,68.71
2019-01-17T07:13:52.893Z,68.38
2019-01-17T07:16:20.044Z,68.67
2019-01-17T07:18:47.090Z,68.98
2019-01-17T07:21:14.113Z,69.47
2019-01-17T07:23:41.160Z,69.80
2019-01-17T07:26:08.190Z,72.45
2019-01-17T07:28:35.248Z,73.23
2019-01-17T07:31:02.281Z,73.37
2019-01-17T07:33:29.303Z,70.81
2019-01-17T07:35:56.346Z,69.49
2019-01-17T07:38:23.437Z,69.05
2019-01-17T07:40:50.469Z,69.14
2019-01-17T07:43:17.497Z,68.97
2019-01-17T07:45:44.535Z,69.24
2019-01-17T07:48:11.558Z,69.09
2019-01-17T07:50:38.601Z,69.24
2019-01-17T07:53:05.628Z,69.11
2019-01-17T07:55:32.681Z,69.16
2019-01-17T07:57:59.736Z,69.09
2019-01-17T08:00:26.798Z,69.29
2019-01-17T08:02:53.848Z,69.43
2019-01-17T08:05:20.852Z,69.45
2019-01-17T08:07:47.942Z,69.66
2019-01-17T08:10:16.004Z,69.92
2019-01-17T08:12:43.033Z,70.12
2019-01-17T08:15:10.579Z,70.11
2019-01-17T08:17:37.611Z,69.91
2019-01-17T08:20:07.185Z,69.76
2019-01-17T08:22:34.215Z,69.63
2019-01-17T08:25:01.276Z,69.83
2019-01-17T08:27:28.315Z,70.12
2019-01-17T08:29:55.351Z,70.00
2019-01-17T08:32:22.400Z,69.96
2019-01-17T08:34:49.428Z,69.84
2019-01-17T08:37:16.460Z,69.42
2019-01-17T08:39:43.515Z,69.41
2019-01-17T08:42:10.586Z,69.35
2019-01-17T08:44:37.626Z,68.88
2019-01-17T08:47:04.688Z,70.10
2019-01-17T08:49:31.715Z,69.92
2019-01-17T08:51:58.793Z,73.12
2019-01-17T08:54:25.788Z,69.53
2019-01-17T08:56:52.851Z,70.50
2019-01-17T08:59:19.906Z,69.66
2019-01-17T09:01:46.956Z,64.97
2019-01-17T09:04:13.987Z,63.73
2019-01-17T09:06:41.036Z,63.44
2019-01-17T09:09:08.767Z,63.91
2019-01-17T09:11:35.783Z,64.33
2019-01-17T09:14:03.051Z,64.50
2019-01-17T09:16:30.083Z,64.38
2019-01-17T09:18:57.123Z,64.35
2019-01-17T09:21:24.157Z,64.30
2019-01-17T09:23:51.193Z,64.36
2019-01-17T09:26:18.252Z,64.27
2019-01-17T09:28:45.299Z,64.37
2019-01-17T09:31:13.128Z,64.52
2019-01-17T09:33:40.160Z,64.58
2019-01-17T09:36:07.207Z,64.62
2019-01-17T09:38:34.234Z,64.67
2019-01-17T09:41:01.279Z,64.58
2019-01-17T09:43:28.314Z,64.62
2019-01-17T09:45:55.336Z,64.41
2019-01-17T09:48:22.365Z,64.19
2019-01-17T09:50:49.383Z,63.92
2019-01-17T09:53:16.420Z,63.49
2019-01-17T09:55:43.461Z,63.15
2019-01-17T09:58:10.493Z,62.62
2019-01-17T10:00:37.542Z,62.19
2019-01-17T10:03:04.586Z,61.75
2019-01-17T10:05:31.624Z,61.39
2019-01-17T10:07:58.650Z,61.11
2019-01-17T10:10:25.998Z,60.57
2019-01-17T10:12:53.228Z,60.10
2019-01-17T10:15:24.084Z,59.79
2019-01-17T10:18:44.922Z,59.22
2019-01-17T10:22:01.155Z,59.06
2019-01-17T10:24:54.393Z,58.89
2019-01-17T10:28:18.714Z,58.96
2019-01-17T10:31:10.652Z,58.61
2019-01-17T10:33:58.602Z,57.79
2019-01-17T10:36:54.249Z,57.13
2019-01-17T10:40:01.601Z,56.96
2019-01-17T10:42:51.042Z,56.41
2019-01-17T10:46:07.911Z,55.67
2019-01-17T10:49:12.506Z,55.12
2019-01-17T10:52:11.478Z,54.38
2019-01-17T10:55:44.404Z,53.33
2019-01-17T10:58:29.404Z,52.40
2019-01-17T11:01:26.743Z,52.89
2019-01-17T11:04:14.656Z,52.18
2019-01-17T11:07:26.035Z,51.90
2019-01-17T11:10:33.134Z,50.92
2019-01-17T11:13:24.523Z,50.00
2019-01-17T11:16:06.116Z,49.82
2019-01-17T11:19:15.131Z,49.69
2019-01-17T11:22:39.382Z,49.69
2019-01-17T11:25:24.319Z,49.57
2019-01-17T11:28:18.609Z,49.16
2019-01-17T11:31:29.559Z,49.46
2019-01-17T11:34:27.613Z,49.93
2019-01-17T11:37:47.302Z,50.23
2019-01-17T11:40:28.900Z,50.08
2019-01-17T11:43:43.486Z,49.85
2019-01-17T11:46:43.207Z,49.62
2019-01-17T11:49:37.839Z,50.00
2019-01-17T11:52:51.401Z,50.57
2019-01-17T11:55:46.482Z,51.14
2019-01-17T11:58:36.103Z,51.49
2019-01-17T12:01:17.797Z,51.71
2019-01-17T12:04:20.215Z,51.52
2019-01-17T12:06:47.282Z,51.21
2019-01-17T12:09:14.317Z,51.26
2019-01-17T12:11:41.390Z,51.54
2019-01-17T12:14:08.438Z,51.72
2019-01-17T12:16:35.478Z,51.63
2019-01-17T12:19:02.543Z,51.65
2019-01-17T12:21:29.606Z,51.69
2019-01-17T12:23:56.825Z,51.52
2019-01-17T12:26:23.864Z,51.46
2019-01-17T12:28:51.010Z,51.70
2019-01-17T12:31:18.067Z,51.32
2019-01-17T12:33:45.112Z,51.55
2019-01-17T12:36:14.138Z,51.65
2019-01-17T12:38:41.175Z,51.93
2019-01-17T12:41:10.486Z,51.69
2019-01-17T12:43:37.568Z,51.72
2019-01-17T12:46:04.630Z,51.58
2019-01-17T12:48:31.674Z,50.35
2019-01-17T12:50:58.720Z,50.01
2019-01-17T12:53:25.793Z,49.39
2019-01-17T12:55:52.862Z,49.26
2019-01-17T12:58:19.939Z,48.63
2019-01-17T13:00:47.008Z,47.86
2019-01-17T13:03:14.085Z,47.87
2019-01-17T13:05:41.120Z,47.22
2019-01-17T13:08:08.186Z,46.89
2019-01-17T13:10:35.255Z,47.11
2019-01-17T13:13:02.351Z,46.96
2019-01-17T13:15:29.399Z,46.60
2019-01-17T13:17:56.469Z,47.25
2019-01-17T13:20:23.527Z,47.98
2019-01-17T13:22:50.599Z,48.47
2019-01-17T13:25:19.404Z,48.70
2019-01-17T13:27:46.476Z,48.93
2019-01-17T13:30:15.682Z,49.20
2019-01-17T13:32:42.820Z,49.75
2019-01-17T13:35:09.898Z,50.04
2019-01-17T13:37:36.930Z,50.36
2019-01-17T13:40:06.735Z,50.44
2019-01-17T13:42:33.771Z,50.39
2019-01-17T13:45:00.859Z,50.61
2019-01-17T13:47:27.901Z,50.66
2019-01-17T13:49:54.948Z,50.74
2019-01-17T13:52:22.013Z,51.16
2019-01-17T13:54:49.088Z,51.34
2019-01-17T13:57:16.167Z,51.53
2019-01-17T13:59:43.239Z,51.88
2019-01-17T14:02:10.305Z,51.82
2019-01-17T14:04:37.361Z,51.94
2019-01-17T14:07:04.429Z,52.10
2019-01-17T14:09:31.482Z,52.37
2019-01-17T14:11:58.556Z,52.62
2019-01-17T14:14:25.623Z,53.01
2019-01-17T14:16:52.773Z,53.13
2019-01-17T14:19:19.830Z,53.72
2019-01-17T14:21:46.879Z,54.90
2019-01-17T14:24:13.931Z,55.54
2019-01-17T14:26:41.063Z,55.67
2019-01-17T14:29:08.146Z,56.20
2019-01-17T14:31:35.190Z,56.48
2019-01-17T14:34:02.281Z,56.65
2019-01-17T14:36:29.353Z,56.35
2019-01-17T14:38:59.945Z,56.60
2019-01-17T14:41:28.869Z,56.47
2019-01-17T14:43:55.932Z,56.62
2019-01-17T14:46:23.020Z,56.53
2019-01-17T14:48:50.084Z,56.88
2019-01-17T14:51:17.150Z,57.14
2019-01-17T14:53:44.212Z,57.38
2019-01-17T14:56:11.272Z,57.71
2019-01-17T14:58:38.311Z,57.81
2019-01-17T15:01:05.378Z,57.93
2019-01-17T15:03:32.463Z,58.02
2019-01-17T15:05:59.520Z,57.85
2019-01-17T15:08:26.580Z,57.79
2019-01-17T15:10:53.624Z,58.24
2019-01-17T15:13:20.714Z,58.04
2019-01-17T15:15:47.768Z,58.08
2019-01-17T15:18:14.848Z,58.34
2019-01-17T15:20:42.390Z,58.87
2019-01-17T15:23:10.249Z,58.81
2019-01-17T15:25:37.294Z,58.85
2019-01-17T15:28:05.864Z,59.04
2019-01-17T15:30:33.018Z,59.26
2019-01-17T15:33:00.081Z,59.49
2019-01-17T15:35:27.143Z,59.67
2019-01-17T15:37:54.175Z,60.05
2019-01-17T15:40:26.227Z,60.74
2019-01-17T15:42:53.286Z,61.02
2019-01-17T15:45:20.333Z,61.21
2019-01-17T15:47:47.468Z,61.52
2019-01-17T15:50:14.618Z,61.52
2019-01-17T15:52:41.722Z,61.70
2019-01-17T15:55:10.049Z,61.42
2019-01-17T15:57:37.449Z,61.27
2019-01-17T16:00:06.305Z,61.14
2019-01-17T16:02:33.345Z,61.25
2019-01-17T16:05:00.376Z,61.17
2019-01-17T16:07:27.421Z,61.11
2019-01-17T16:09:54.509Z,61.51
2019-01-17T16:12:21.709Z,61.86
2019-01-17T16:14:48.765Z,61.89
2019-01-17T16:17:15.869Z,61.93
2019-01-17T16:19:42.962Z,61.46
2019-01-17T16:22:10.135Z,61.35
2019-01-17T16:24:37.245Z,61.13
2019-01-17T16:27:04.330Z,61.03
2019-01-17T16:29:31.389Z,61.14
2019-01-17T16:31:58.514Z,61.15
2019-01-17T16:34:25.631Z,61.33
2019-01-17T16:36:52.733Z,61.36
2019-01-17T16:39:19.860Z,61.55
2019-01-17T16:41:46.963Z,61.43
2019-01-17T16:44:14.058Z,61.27
2019-01-17T16:46:41.112Z,61.12
2019-01-17T16:49:08.172Z,60.84
2019-01-17T16:51:35.315Z,60.88
2019-01-17T16:54:02.432Z,60.71
2019-01-17T16:56:29.599Z,60.77
2019-01-17T16:58:56.714Z,60.84
2019-01-17T17:01:23.812Z,60.96
2019-01-17T17:03:50.933Z,61.42
2019-01-17T17:06:18.079Z,62.06
2019-01-17T17:08:45.210Z,62.27
2019-01-17T17:11:12.367Z,62.41
2019-01-17T17:13:39.486Z,62.57
2019-01-17T17:16:06.561Z,62.98
2019-01-17T17:18:34.835Z,62.93
2019-01-17T17:21:01.917Z,62.99
2019-01-17T17:23:29.068Z,63.38
2019-01-17T17:25:56.196Z,63.68
2019-01-17T17:28:23.341Z,63.84
2019-01-17T17:30:50.724Z,63.75
2019-01-17T17:33:17.857Z,63.88
2019-01-17T17:35:44.985Z,64.05
2019-01-17T17:38:12.151Z,64.15
2019-01-17T17:40:39.279Z,64.03
2019-01-17T17:43:06.449Z,64.01
2019-01-17T17:45:33.535Z,64.30
2019-01-17T17:48:01.397Z,64.21
2019-01-17T17:50:29.065Z,64.36
2019-01-17T17:52:56.174Z,64.45
2019-01-17T17:55:23.319Z,64.65
2019-01-17T17:57:50.700Z,64.82
2019-01-17T18:00:36.905Z,64.79
2019-01-17T18:03:04.059Z,64.75
2019-01-17T18:05:31.223Z,64.94
2019-01-17T18:07:58.341Z,65.37
2019-01-17T18:10:25.484Z,65.65
2019-01-17T18:12:54.136Z,65.68
2019-01-17T18:15:21.260Z,65.76
2019-01-17T18:17:48.442Z,65.82
2019-01-17T18:20:16.081Z,65.64
2019-01-17T18:22:45.447Z,65.67
2019-01-17T18:25:12.580Z,65.61
2019-01-17T18:27:41.505Z,65.50
2019-01-17T18:30:12.601Z,65.49
2019-01-17T18:32:41.576Z,65.34
2019-01-17T18:35:09.298Z,65.29
2019-01-17T18:37:39.321Z,65.27
2019-01-17T18:40:08.582Z,65.35
2019-01-17T18:42:35.764Z,65.35
2019-01-17T18:45:05.034Z,65.23
2019-01-17T18:47:32.233Z,65.16
2019-01-17T18:49:59.435Z,65.18
2019-01-17T18:52:26.635Z,65.33
2019-01-17T18:54:54.124Z,65.40
2019-01-17T18:57:21.434Z,65.44
2019-01-17T18:59:51.829Z,65.33
2019-01-17T19:02:25.281Z,65.26
2019-01-17T19:04:54.031Z,65.39
2019-01-17T19:07:22.226Z,65.64
2019-01-17T19:09:51.124Z,65.15
2019-01-17T19:12:19.464Z,65.10
2019-01-17T19:14:47.145Z,65.10
2019-01-17T19:17:19.542Z,65.21
2019-01-17T19:19:49.086Z,65.16
2019-01-17T19:22:16.955Z,65.14
2019-01-17T19:24:44.243Z,64.94
2019-01-17T19:27:11.991Z,64.81
2019-01-17T19:29:40.469Z,64.79
2019-01-17T19:32:07.735Z,64.79
2019-01-17T19:34:36.033Z,64.65
2019-01-17T19:37:05.884Z,64.70
2019-01-17T19:39:33.375Z,64.83
2019-01-17T19:42:01.208Z,64.89
2019-01-17T19:44:29.240Z,64.91
2019-01-17T19:47:00.787Z,64.69
2019-01-17T19:49:31.095Z,64.49
2019-01-17T19:51:59.934Z,64.36
2019-01-17T19:54:28.208Z,64.14
2019-01-17T19:56:55.972Z,64.06
2019-01-17T19:59:23.361Z,63.94
2019-01-17T20:01:51.227Z,63.81
2019-01-17T20:04:21.031Z,63.74
2019-01-17T20:06:51.233Z,63.85
2019-01-17T20:09:19.094Z,63.74
2019-01-17T20:11:47.534Z,63.96
2019-01-17T20:14:14.954Z,63.94
2019-01-17T20:16:42.302Z,63.89
2019-01-17T20:19:13.790Z,63.84
2019-01-17T20:21:42.911Z,63.93
2019-01-17T20:24:11.722Z,63.99
2019-01-17T20:26:39.043Z,63.76
2019-01-17T20:29:06.557Z,63.95
2019-01-17T20:31:34.123Z,63.80
2019-01-17T20:34:01.811Z,63.84
2019-01-17T20:36:32.295Z,63.74
2019-01-17T20:38:59.726Z,63.63
2019-01-17T20:41:27.024Z,63.55
2019-01-17T20:43:54.740Z,63.85
2019-01-17T20:46:21.987Z,63.80
2019-01-17T20:48:49.711Z,63.87
2019-01-17T20:51:17.188Z,63.72
2019-01-17T20:53:44.337Z,63.77
2019-01-17T20:56:11.509Z,64.02
2019-01-17T20:58:42.594Z,64.14
2019-01-17T21:01:54.223Z,64.20
2019-01-17T21:04:21.411Z,64.25
2019-01-17T21:06:48.534Z,63.82
2019-01-17T21:09:15.983Z,63.86
2019-01-17T21:11:44.138Z,63.82
2019-01-17T21:14:11.300Z,63.74
2019-01-17T21:16:38.443Z,63.64
2019-01-17T21:19:08.106Z,63.47
2019-01-17T21:21:35.524Z,63.51
2019-01-17T21:24:02.792Z,63.38
2019-01-17T21:26:32.886Z,63.34
2019-01-17T21:29:00.387Z,63.29
2019-01-17T21:31:27.514Z,62.95
2019-01-17T21:33:54.619Z,62.96
2019-01-17T21:36:21.756Z,62.85
2019-01-17T21:38:48.902Z,62.75
2019-01-17T21:41:16.043Z,62.97
2019-01-17T21:43:43.143Z,62.99
2019-01-17T21:46:10.296Z,63.10
2019-01-17T21:48:37.420Z,63.20
2019-01-17T21:51:04.574Z,63.21
2019-01-17T21:53:31.680Z,63.46
2019-01-17T21:55:58.825Z,63.67
2019-01-17T21:58:25.930Z,63.71
2019-01-17T22:00:53.062Z,63.80
2019-01-17T22:03:20.134Z,64.09
2019-01-17T22:05:47.195Z,64.24
2019-01-17T22:08:14.283Z,64.17
2019-01-17T22:10:43.523Z,64.12
2019-01-17T22:13:10.616Z,64.18
2019-01-17T22:15:37.683Z,64.10
2019-01-17T22:18:04.798Z,64.01
2019-01-17T22:20:31.894Z,63.99
2019-01-17T22:22:58.992Z,64.00
2019-01-17T22:25:26.046Z,64.01
2019-01-17T22:27:53.121Z,64.16
2019-01-17T22:30:21.969Z,63.94
2019-01-17T22:32:49.002Z,63.88
2019-01-17T22:35:16.052Z,63.52
2019-01-17T22:37:43.097Z,63.35
2019-01-17T22:40:11.456Z,63.10
2019-01-17T22:42:38.503Z,62.74
2019-01-17T22:45:07.892Z,62.74
2019-01-17T22:47:34.931Z,62.39
2019-01-17T22:50:01.986Z,62.21
2019-01-17T22:52:29.004Z,62.29
2019-01-17T22:54:56.048Z,62.56
2019-01-17T22:57:23.096Z,62.51
2019-01-17T22:59:50.130Z,62.21
2019-01-17T23:02:17.175Z,61.83
2019-01-17T23:04:44.212Z,61.28
2019-01-17T23:07:11.251Z,61.21
2019-01-17T23:09:38.289Z,60.86
2019-01-17T23:12:05.366Z,61.11
2019-01-17T23:14:32.405Z,61.27
2019-01-17T23:16:59.498Z,61.56
2019-01-17T23:19:26.531Z,61.94
2019-01-17T23:21:53.571Z,62.29
2019-01-17T23:24:20.623Z,62.52
2019-01-17T23:26:47.661Z,62.95
2019-01-17T23:29:16.063Z,63.33
2019-01-17T23:31:43.299Z,63.78
2019-01-17T23:34:10.347Z,63.98
2019-01-17T23:36:37.410Z,64.83
2019-01-17T23:39:07.444Z,64.91
2019-01-17T23:41:34.508Z,65.35
2019-01-17T23:44:01.539Z,65.80
2019-01-17T23:46:28.604Z,66.12
2019-01-17T23:48:55.637Z,66.25
2019-01-17T23:51:22.691Z,66.40
2019-01-17T23:53:49.710Z,66.52
2019-01-17T23:56:16.770Z,66.57
2019-01-17T23:58:43.794Z,66.73
